Time;durP1;ratioP1;P1;durP2;ratioP2;P2;SDS_P1;SDS_P2;PMS_P1;PMS_P2;Temp;Humidity;BMP_temperature;BMP_pressure;BME280_temperature;BME280_humidity;BME280_pressure;Samples;Min_cycle;Max_cycle;Signal;HPM_P1;HPM_P2
2023/04/08 00:00:50;;;;;;;1.53;1.43;;;;;;;;;;5033196;28;20227;-91
2023/04/08 00:03:19;;;;;;;1.53;1.43;;;;;;;;;;5033199;28;20210;-91
2023/04/08 00:05:47;;;;;;;1.63;1.63;;;;;;;;;;5033804;28;20202;-91
2023/04/08 00:08:16;;;;;;;0.80;0.80;;;;;;;;;;5033225;28;20292;-91
2023/04/08 00:10:44;;;;;;;0.80;0.80;;;;;;;;;;5034021;28;20195;-91
2023/04/08 00:13:13;;;;;;;1.40;1.40;;;;;;;;;;5033846;28;20226;-91
2023/04/08 00:15:43;;;;;;;2.33;2.30;;;;;;;;;;5033250;28;20200;-91
2023/04/08 00:18:12;;;;;;;2.20;2.10;;;;;;;;;;5033681;28;20308;-91
2023/04/08 00:20:40;;;;;;;0.80;0.80;;;;;;;;;;5033125;28;20217;-90
2023/04/08 00:23:08;;;;;;;3.33;2.87;;;;;;;;;;5032501;28;20199;-91
2023/04/08 00:25:37;;;;;;;1.73;1.63;;;;;;;;;;5033037;28;20202;-91
2023/04/08 00:28:05;;;;;;;6.13;2.63;;;;;;;;;;5033523;28;20222;-91
2023/04/08 00:30:34;;;;;;;4.10;3.80;;;;;;;;;;5033028;28;20259;-91
2023/04/08 00:33:04;;;;;;;3.03;2.83;;;;;;;;;;5032958;28;20340;-91
2023/04/08 00:35:32;;;;;;;2.07;2.03;;;;;;;;;;5032961;28;20297;-91
2023/04/08 00:38:02;;;;;;;6.57;4.20;;;;;;;;;;5033355;28;20282;-91
2023/04/08 00:40:30;;;;;;;2.87;2.60;;;;;;;;;;5032809;28;20221;-91
2023/04/08 00:42:59;;;;;;;2.70;2.60;;;;;;;;;;5032747;28;20203;-91
2023/04/08 00:45:27;;;;;;;2.57;2.47;;;;;;;;;;5032944;28;20247;-91
2023/04/08 00:47:57;;;;;;;1.00;1.00;;;;;;;;;;5037333;28;20245;-91
2023/04/08 00:50:26;;;;;;;2.10;2.00;;;;;;;;;;5036901;28;20232;-91
2023/04/08 00:52:55;;;;;;;2.47;2.37;;;;;;;;;;5036747;28;20202;-91
2023/04/08 00:55:23;;;;;;;1.57;1.47;;;;;;;;;;5036713;28;20203;-91
2023/04/08 00:57:52;;;;;;;0.97;0.97;;;;;;;;;;5037530;28;20220;-91
2023/04/08 01:00:21;;;;;;;2.80;2.00;;;;;;;;;;5036961;28;20221;-91
2023/04/08 01:02:55;;;;;;;1.13;1.13;;;;;;;;;;5036946;28;20253;-91
2023/04/08 01:05:28;;;;;;;1.23;1.23;;;;;;;;;;5037020;28;20234;-91
2023/04/08 01:08:00;;;;;;;1.23;1.23;;;;;;;;;;5036205;28;20198;-91
2023/04/08 01:10:31;;;;;;;3.00;2.70;;;;;;;;;;5036584;28;20236;-91
2023/04/08 01:13:00;;;;;;;3.27;2.40;;;;;;;;;;5036495;28;20205;-92
2023/04/08 01:15:29;;;;;;;1.20;1.20;;;;;;;;;;5035970;28;20200;-91
2023/04/08 01:17:59;;;;;;;11.50;4.43;;;;;;;;;;5036526;28;20307;-91
2023/04/08 01:20:29;;;;;;;2.77;2.60;;;;;;;;;;5036253;28;20287;-91
2023/04/08 01:23:04;;;;;;;1.63;1.53;;;;;;;;;;5036235;28;20291;-91
2023/04/08 01:25:33;;;;;;;0.90;0.90;;;;;;;;;;5036113;28;20297;-91
2023/04/08 01:28:05;;;;;;;2.97;1.20;;;;;;;;;;5036682;28;20231;-91
2023/04/08 01:30:34;;;;;;;0.80;0.80;;;;;;;;;;5036101;28;20228;-91
2023/04/08 01:33:04;;;;;;;1.27;1.27;;;;;;;;;;5037064;28;20228;-91
2023/04/08 01:35:33;;;;;;;3.00;2.50;;;;;;;;;;5036279;28;20215;-91
2023/04/08 01:38:02;;;;;;;10.47;2.60;;;;;;;;;;5036475;28;20204;-91
2023/04/08 01:40:30;;;;;;;1.00;1.00;;;;;;;;;;5036004;28;20216;-91
2023/04/08 01:42:59;;;;;;;2.13;1.17;;;;;;;;;;5036655;28;20207;-92
2023/04/08 01:45:30;;;;;;;8.33;1.57;;;;;;;;;;5036170;28;20208;-91
2023/04/08 01:47:59;;;;;;;1.30;1.30;;;;;;;;;;5035875;28;20232;-91
2023/04/08 01:50:28;;;;;;;1.73;1.67;;;;;;;;;;5036009;28;20205;-91
2023/04/08 01:52:59;;;;;;;47.97;3.13;;;;;;;;;;5036432;28;20208;-91
2023/04/08 01:55:28;;;;;;;49.73;3.47;;;;;;;;;;5035510;28;20200;-91
2023/04/08 01:58:00;;;;;;;19.00;2.83;;;;;;;;;;5035283;28;20207;-91
2023/04/08 02:00:31;;;;;;;11.13;2.40;;;;;;;;;;5036132;28;20242;-91
2023/04/08 02:03:00;;;;;;;51.40;3.20;;;;;;;;;;5035904;28;20234;-91
2023/04/08 02:05:29;;;;;;;14.23;2.50;;;;;;;;;;5035739;28;20214;-91
2023/04/08 02:07:57;;;;;;;2.53;1.60;;;;;;;;;;5035760;28;20211;-91
2023/04/08 02:10:26;;;;;;;34.47;2.13;;;;;;;;;;5035399;28;20267;-92
2023/04/08 02:12:54;;;;;;;12.50;2.40;;;;;;;;;;5035931;28;20195;-92
2023/04/08 02:15:23;;;;;;;2.03;1.93;;;;;;;;;;5035286;28;20199;-92
2023/04/08 02:17:55;;;;;;;1.27;1.17;;;;;;;;;;5035750;28;20253;-92
2023/04/08 02:20:25;;;;;;;0.90;0.90;;;;;;;;;;5035827;28;20258;-92
2023/04/08 02:22:58;;;;;;;1.87;1.73;;;;;;;;;;5036295;28;20200;-92
2023/04/08 02:25:28;;;;;;;1.87;1.77;;;;;;;;;;5035544;28;20204;-92
2023/04/08 02:27:57;;;;;;;1.23;1.23;;;;;;;;;;5035633;28;20223;-92
2023/04/08 02:30:26;;;;;;;1.20;1.20;;;;;;;;;;5035724;28;20203;-92
2023/04/08 02:32:57;;;;;;;0.70;0.70;;;;;;;;;;5035180;28;20258;-92
2023/04/08 02:35:26;;;;;;;1.10;1.10;;;;;;;;;;5035449;28;20195;-92
2023/04/08 02:37:54;;;;;;;1.57;1.47;;;;;;;;;;5035258;28;20251;-92
2023/04/08 02:40:24;;;;;;;2.20;2.20;;;;;;;;;;5035769;28;20206;-92
2023/04/08 02:42:52;;;;;;;1.37;1.27;;;;;;;;;;5035503;28;20209;-91
2023/04/08 02:45:21;;;;;;;2.53;2.27;;;;;;;;;;5035381;28;20233;-91
2023/04/08 02:47:49;;;;;;;2.07;1.97;;;;;;;;;;5035168;28;20241;-91
2023/04/08 02:50:19;;;;;;;2.23;2.13;;;;;;;;;;5036016;28;20238;-92
2023/04/08 02:52:48;;;;;;;1.40;1.40;;;;;;;;;;5035041;28;20195;-92
2023/04/08 02:55:16;;;;;;;2.47;2.20;;;;;;;;;;5035150;28;20260;-92
2023/04/08 02:57:45;;;;;;;4.37;1.97;;;;;;;;;;5035158;28;20262;-91
2023/04/08 03:00:14;;;;;;;2.93;2.03;;;;;;;;;;5035921;28;20293;-92
2023/04/08 03:02:42;;;;;;;2.30;2.20;;;;;;;;;;5034509;28;20219;-91
2023/04/08 03:05:11;;;;;;;1.43;1.33;;;;;;;;;;5035025;28;20222;-91
2023/04/08 03:07:40;;;;;;;3.93;3.73;;;;;;;;;;5033894;28;20270;-92
2023/04/08 03:10:09;;;;;;;0.80;0.80;;;;;;;;;;5032861;28;20226;-92
2023/04/08 03:12:38;;;;;;;1.20;1.20;;;;;;;;;;5034161;28;20306;-91
2023/04/08 03:15:07;;;;;;;2.90;2.70;;;;;;;;;;5034957;28;20226;-91
2023/04/08 03:17:35;;;;;;;2.70;2.50;;;;;;;;;;5034796;28;20218;-92
2023/04/08 03:20:04;;;;;;;1.50;1.43;;;;;;;;;;5035017;28;20203;-91
2023/04/08 03:22:34;;;;;;;1.00;1.00;;;;;;;;;;5035239;28;20233;-91
2023/04/08 03:25:04;;;;;;;3.30;3.10;;;;;;;;;;5035138;28;20253;-91
2023/04/08 03:27:32;;;;;;;1.10;1.10;;;;;;;;;;5034933;28;20258;-91
2023/04/08 03:30:01;;;;;;;2.17;2.07;;;;;;;;;;5034921;28;20203;-92
2023/04/08 03:32:29;;;;;;;1.07;1.07;;;;;;;;;;5034491;28;20191;-92
2023/04/08 03:34:58;;;;;;;3.03;1.73;;;;;;;;;;5035324;28;20225;-91
2023/04/08 03:37:26;;;;;;;1.27;1.27;;;;;;;;;;5035125;28;20202;-92
2023/04/08 03:39:55;;;;;;;1.07;1.07;;;;;;;;;;5035760;28;20200;-92
2023/04/08 03:42:25;;;;;;;1.70;1.60;;;;;;;;;;5034490;28;20227;-92
2023/04/08 03:44:53;;;;;;;1.40;1.37;;;;;;;;;;5034342;28;20200;-92
2023/04/08 03:47:22;;;;;;;0.80;0.80;;;;;;;;;;5034478;28;20199;-91
2023/04/08 03:49:50;;;;;;;0.80;0.80;;;;;;;;;;5033513;28;20214;-92
2023/04/08 03:52:19;;;;;;;0.80;0.80;;;;;;;;;;5033864;28;20199;-92
2023/04/08 03:54:47;;;;;;;1.33;1.33;;;;;;;;;;5034344;28;20222;-91
2023/04/08 03:57:16;;;;;;;1.03;1.03;;;;;;;;;;5033759;28;20198;-91
2023/04/08 03:59:45;;;;;;;1.40;1.40;;;;;;;;;;5034115;28;20203;-91
2023/04/08 04:02:14;;;;;;;0.80;0.80;;;;;;;;;;5033165;28;20215;-91
2023/04/08 04:04:42;;;;;;;1.27;1.27;;;;;;;;;;5034011;28;20257;-91
2023/04/08 04:07:11;;;;;;;1.80;1.73;;;;;;;;;;5033527;28;20260;-91
2023/04/08 04:09:39;;;;;;;0.90;0.90;;;;;;;;;;5033591;28;20198;-90
2023/04/08 04:12:08;;;;;;;2.67;1.73;;;;;;;;;;5032974;28;20196;-91
2023/04/08 04:14:36;;;;;;;2.40;2.30;;;;;;;;;;5033864;28;20211;-91
2023/04/08 04:17:06;;;;;;;1.67;1.63;;;;;;;;;;5033829;28;20215;-91
2023/04/08 04:19:34;;;;;;;2.17;2.07;;;;;;;;;;5033357;28;20234;-91
2023/04/08 04:22:03;;;;;;;2.73;2.53;;;;;;;;;;5033299;28;20252;-90
2023/04/08 04:24:31;;;;;;;5.40;2.80;;;;;;;;;;5033434;28;20235;-91
2023/04/08 04:27:00;;;;;;;2.73;2.53;;;;;;;;;;5033231;28;20318;-90
2023/04/08 04:29:28;;;;;;;4.37;3.97;;;;;;;;;;5033664;28;20265;-90
2023/04/08 04:32:15;;;;;;;3.03;2.73;;;;;;;;;;5130744;27;20554;-92
2023/04/08 04:34:43;;;;;;;3.50;3.23;;;;;;;;;;5111112;28;20220;-92
2023/04/08 04:37:12;;;;;;;4.67;4.40;;;;;;;;;;5111082;28;20196;-92
2023/04/08 04:39:40;;;;;;;3.23;3.03;;;;;;;;;;5111111;28;20197;-92
2023/04/08 04:42:09;;;;;;;7.23;6.23;;;;;;;;;;5111236;28;20326;-92
2023/04/08 04:44:37;;;;;;;4.77;4.57;;;;;;;;;;5111313;28;20239;-92
2023/04/08 04:47:06;;;;;;;2.20;2.03;;;;;;;;;;5110914;28;20283;-92
2023/04/08 04:49:36;;;;;;;5.03;4.40;;;;;;;;;;5110604;28;20232;-92
2023/04/08 04:52:06;;;;;;;4.37;4.00;;;;;;;;;;5111063;28;20208;-92
2023/04/08 04:54:34;;;;;;;2.60;2.50;;;;;;;;;;5111186;28;20215;-92
2023/04/08 04:57:02;;;;;;;1.10;1.10;;;;;;;;;;5110965;28;20204;-92
2023/04/08 04:59:31;;;;;;;3.30;2.77;;;;;;;;;;5111142;28;20205;-92
2023/04/08 05:01:59;;;;;;;3.23;3.07;;;;;;;;;;5110895;28;20208;-91
2023/04/08 05:04:28;;;;;;;1.57;1.57;;;;;;;;;;5110749;28;20205;-92
2023/04/08 05:06:59;;;;;;;0.90;0.90;;;;;;;;;;5110109;28;20207;-92
2023/04/08 05:09:28;;;;;;;6.63;4.77;;;;;;;;;;5110163;28;20261;-92
2023/04/08 05:11:56;;;;;;;5.60;4.40;;;;;;;;;;5110465;28;20247;-92
2023/04/08 05:14:25;;;;;;;6.83;2.27;;;;;;;;;;5110937;28;20243;-92
2023/04/08 05:16:53;;;;;;;13.73;3.50;;;;;;;;;;5110599;28;20204;-92
2023/04/08 05:19:22;;;;;;;2.40;2.30;;;;;;;;;;5110057;28;20196;-92
2023/04/08 05:21:50;;;;;;;1.33;1.33;;;;;;;;;;5110769;28;20291;-92
2023/04/08 05:24:20;;;;;;;2.30;2.17;;;;;;;;;;5110378;28;20205;-92
2023/04/08 05:26:51;;;;;;;6.70;5.57;;;;;;;;;;5104699;28;20255;-92
2023/04/08 05:29:20;;;;;;;1.33;1.27;;;;;;;;;;5089590;28;20197;-92
2023/04/08 05:31:49;;;;;;;2.60;2.50;;;;;;;;;;5089465;28;20237;-92
2023/04/08 05:34:21;;;;;;;4.07;3.77;;;;;;;;;;5089478;28;20296;-92
2023/04/08 05:36:51;;;;;;;4.03;3.73;;;;;;;;;;5090036;28;20205;-92
2023/04/08 05:39:21;;;;;;;1.67;1.67;;;;;;;;;;5089800;28;20307;-92
2023/04/08 05:41:49;;;;;;;1.10;1.10;;;;;;;;;;5085508;28;20254;-92
2023/04/08 05:44:18;;;;;;;4.60;2.80;;;;;;;;;;5075881;28;20202;-91
2023/04/08 05:46:46;;;;;;;1.97;1.63;;;;;;;;;;5075948;28;20194;-92
2023/04/08 05:49:16;;;;;;;2.90;2.80;;;;;;;;;;5075555;28;20190;-92
2023/04/08 05:51:44;;;;;;;1.67;1.67;;;;;;;;;;5076362;28;20264;-92
2023/04/08 05:54:13;;;;;;;1.33;1.33;;;;;;;;;;5076171;28;20197;-92
2023/04/08 05:56:45;;;;;;;1.30;1.30;;;;;;;;;;5076338;28;20194;-92
2023/04/08 05:59:13;;;;;;;0.97;0.97;;;;;;;;;;5075877;28;20190;-92
2023/04/08 06:01:42;;;;;;;3.00;2.80;;;;;;;;;;5076424;28;20202;-92
2023/04/08 06:04:10;;;;;;;1.20;1.20;;;;;;;;;;5075932;28;20223;-92
2023/04/08 06:06:39;;;;;;;5.03;4.53;;;;;;;;;;5075430;28;20232;-91
2023/04/08 06:09:08;;;;;;;7.47;6.27;;;;;;;;;;5075469;28;20223;-92
2023/04/08 06:11:37;;;;;;;5.80;5.27;;;;;;;;;;5075009;28;20217;-92
2023/04/08 06:14:06;;;;;;;8.90;6.70;;;;;;;;;;5075137;28;20202;-92
2023/04/08 06:16:38;;;;;;;8.33;6.30;;;;;;;;;;5074784;28;20206;-92
2023/04/08 06:19:06;;;;;;;7.00;5.10;;;;;;;;;;5074747;28;20205;-92
2023/04/08 06:21:35;;;;;;;2.50;1.97;;;;;;;;;;5074083;28;20202;-92
2023/04/08 06:24:03;;;;;;;7.53;5.83;;;;;;;;;;5074196;28;20232;-92
2023/04/08 06:26:35;;;;;;;3.93;3.60;;;;;;;;;;5074513;28;20260;-92
2023/04/08 06:29:04;;;;;;;12.47;9.57;;;;;;;;;;5074434;28;20209;-92
2023/04/08 06:31:34;;;;;;;2.53;2.43;;;;;;;;;;5075474;28;20245;-92
2023/04/08 06:34:02;;;;;;;4.77;4.33;;;;;;;;;;5074854;28;20213;-92
2023/04/08 06:36:31;;;;;;;7.20;5.87;;;;;;;;;;5074649;28;20229;-92
2023/04/08 06:38:59;;;;;;;7.70;6.63;;;;;;;;;;5075343;28;20201;-92
2023/04/08 06:41:28;;;;;;;2.80;2.40;;;;;;;;;;5074596;28;20236;-91
2023/04/08 06:43:56;;;;;;;4.17;3.87;;;;;;;;;;5074955;28;20209;-92
2023/04/08 06:46:26;;;;;;;4.20;3.17;;;;;;;;;;5074395;28;20255;-93
2023/04/08 06:48:56;;;;;;;4.40;4.00;;;;;;;;;;5075458;28;20208;-92
2023/04/08 06:51:24;;;;;;;4.20;3.83;;;;;;;;;;5074520;28;20257;-93
2023/04/08 06:53:55;;;;;;;4.97;4.47;;;;;;;;;;5074144;28;20205;-92
2023/04/08 06:56:25;;;;;;;8.60;5.37;;;;;;;;;;5074442;28;20206;-90
2023/04/08 06:58:53;;;;;;;2.77;2.53;;;;;;;;;;5074269;28;20191;-90
2023/04/08 07:01:22;;;;;;;2.47;2.27;;;;;;;;;;5074938;28;20211;-90
2023/04/08 07:03:51;;;;;;;4.93;3.37;;;;;;;;;;5074658;28;20201;-90
2023/04/08 07:06:21;;;;;;;3.73;2.80;;;;;;;;;;5074145;28;20205;-91
2023/04/08 07:08:49;;;;;;;6.07;4.77;;;;;;;;;;5073836;28;20248;-91
2023/04/08 07:11:18;;;;;;;7.17;6.07;;;;;;;;;;5073761;28;20206;-90
2023/04/08 07:13:47;;;;;;;7.67;6.67;;;;;;;;;;5074030;28;20197;-90
2023/04/08 07:16:16;;;;;;;6.83;5.37;;;;;;;;;;5074155;28;20236;-91
2023/04/08 07:18:45;;;;;;;3.00;2.73;;;;;;;;;;5073807;28;20227;-91
2023/04/08 07:21:13;;;;;;;7.33;6.40;;;;;;;;;;5073246;28;20216;-91
2023/04/08 07:23:44;;;;;;;5.53;4.77;;;;;;;;;;5073529;28;20199;-91
2023/04/08 07:26:12;;;;;;;6.43;4.93;;;;;;;;;;5073777;28;20198;-92
2023/04/08 07:28:41;;;;;;;6.83;5.63;;;;;;;;;;5073389;28;20235;-91
2023/04/08 07:31:10;;;;;;;5.47;3.67;;;;;;;;;;5073062;28;20230;-91
2023/04/08 07:33:39;;;;;;;7.30;6.47;;;;;;;;;;5073256;28;20215;-91
2023/04/08 07:36:07;;;;;;;5.40;4.90;;;;;;;;;;5073424;28;20195;-89
2023/04/08 07:38:36;;;;;;;6.43;4.30;;;;;;;;;;5072936;28;20204;-91
2023/04/08 07:41:05;;;;;;;10.90;8.17;;;;;;;;;;5072772;28;20202;-90
2023/04/08 07:43:35;;;;;;;8.90;7.60;;;;;;;;;;5073171;28;20203;-90
2023/04/08 07:46:05;;;;;;;5.63;4.37;;;;;;;;;;5073034;28;20206;-86
2023/04/08 07:48:34;;;;;;;1.77;1.67;;;;;;;;;;5071510;28;20203;-86
2023/04/08 07:51:06;;;;;;;5.70;5.20;;;;;;;;;;5071804;28;20201;-86
2023/04/08 07:53:37;;;;;;;4.83;4.37;;;;;;;;;;5071783;28;20210;-86
2023/04/08 07:56:13;;;;;;;3.97;2.77;;;;;;;;;;5071836;28;20401;-86
2023/04/08 07:58:42;;;;;;;12.13;5.43;;;;;;;;;;5071521;28;20200;-86
2023/04/08 08:01:17;;;;;;;9.97;6.40;;;;;;;;;;5071563;28;20197;-86
2023/04/08 08:03:46;;;;;;;8.43;6.10;;;;;;;;;;5071864;28;20197;-86
2023/04/08 08:06:15;;;;;;;3.43;3.23;;;;;;;;;;5071812;28;20207;-86
2023/04/08 08:08:44;;;;;;;6.17;4.60;;;;;;;;;;5071121;28;20207;-86
2023/04/08 08:11:14;;;;;;;6.13;4.30;;;;;;;;;;5071388;28;20199;-86
2023/04/08 08:13:43;;;;;;;4.00;3.43;;;;;;;;;;5071182;28;20207;-86
2023/04/08 08:16:11;;;;;;;5.13;4.53;;;;;;;;;;5071064;28;20199;-87
2023/04/08 08:18:40;;;;;;;9.27;8.27;;;;;;;;;;5071436;28;20200;-86
2023/04/08 08:21:09;;;;;;;10.27;7.00;;;;;;;;;;5071533;28;20217;-86
2023/04/08 08:23:39;;;;;;;2.90;2.70;;;;;;;;;;5071578;28;20233;-90
2023/04/08 08:26:11;;;;;;;5.30;4.87;;;;;;;;;;5062626;28;20216;-90
2023/04/08 08:28:42;;;;;;;6.33;5.73;;;;;;;;;;5069486;28;20204;-86
2023/04/08 08:31:11;;;;;;;9.10;7.00;;;;;;;;;;5063158;28;20289;-86
2023/04/08 08:33:39;;;;;;;5.97;4.83;;;;;;;;;;5080068;28;20223;-86
2023/04/08 08:36:08;;;;;;;6.20;5.53;;;;;;;;;;5071003;28;20204;-87
2023/04/08 08:38:36;;;;;;;6.57;5.90;;;;;;;;;;5075157;28;20263;-86
2023/04/08 08:41:05;;;;;;;4.07;3.67;;;;;;;;;;5072818;28;20231;-86
2023/04/08 08:43:34;;;;;;;8.63;6.53;;;;;;;;;;5069017;28;20231;-86
2023/04/08 08:46:04;;;;;;;8.30;5.83;;;;;;;;;;5085361;28;20205;-85
2023/04/08 08:48:32;;;;;;;9.23;6.10;;;;;;;;;;5066169;28;20210;-85
2023/04/08 08:51:01;;;;;;;4.87;4.40;;;;;;;;;;5069235;28;20207;-86
2023/04/08 08:53:31;;;;;;;11.00;9.60;;;;;;;;;;5068456;28;20209;-86
2023/04/08 08:56:03;;;;;;;5.53;5.10;;;;;;;;;;5070321;28;20300;-86
2023/04/08 08:58:34;;;;;;;3.97;3.50;;;;;;;;;;5069347;28;20225;-86
2023/04/08 09:01:04;;;;;;;7.53;5.00;;;;;;;;;;5070268;28;20208;-86
2023/04/08 09:03:36;;;;;;;9.73;7.70;;;;;;;;;;5069794;28;20239;-85
2023/04/08 09:06:05;;;;;;;11.57;6.40;;;;;;;;;;5072250;28;20242;-86
2023/04/08 09:08:34;;;;;;;5.27;4.63;;;;;;;;;;5071504;28;20240;-86
2023/04/08 09:11:12;;;;;;;9.43;8.50;;;;;;;;;;5071602;28;20204;-86
2023/04/08 09:13:40;;;;;;;6.00;4.77;;;;;;;;;;5071112;28;20210;-86
2023/04/08 09:16:11;;;;;;;9.30;7.30;;;;;;;;;;5070777;28;20235;-86
2023/04/08 09:18:43;;;;;;;5.50;3.63;;;;;;;;;;5062742;28;20259;-86
2023/04/08 09:21:12;;;;;;;6.17;5.57;;;;;;;;;;5075652;28;20236;-86
2023/04/08 09:23:42;;;;;;;5.27;4.77;;;;;;;;;;5081544;28;20193;-86
2023/04/08 09:26:11;;;;;;;10.37;8.33;;;;;;;;;;5078355;28;20213;-86
2023/04/08 09:28:40;;;;;;;7.27;5.50;;;;;;;;;;5082022;28;20209;-89
2023/04/08 09:31:23;;;;;;;8.33;7.20;;;;;;;;;;5076187;28;20232;-90
2023/04/08 09:33:53;;;;;;;5.30;4.17;;;;;;;;;;5074186;28;20221;-89
2023/04/08 09:36:25;;;;;;;3.13;2.93;;;;;;;;;;5081281;28;20328;-87
2023/04/08 09:38:54;;;;;;;5.00;4.53;;;;;;;;;;5075951;28;20212;-87
2023/04/08 09:41:23;;;;;;;5.83;5.07;;;;;;;;;;5084250;28;20201;-87
2023/04/08 09:43:54;;;;;;;5.80;4.53;;;;;;;;;;5076222;28;20254;-87
2023/04/08 09:46:28;;;;;;;9.23;6.37;;;;;;;;;;5074527;28;20209;-86
2023/04/08 09:48:59;;;;;;;8.73;7.87;;;;;;;;;;5079348;28;20204;-87
2023/04/08 09:51:33;;;;;;;5.87;5.20;;;;;;;;;;5080456;28;20216;-87
2023/04/08 09:54:04;;;;;;;4.07;3.37;;;;;;;;;;5080214;28;20213;-87
2023/04/08 09:56:37;;;;;;;3.97;3.60;;;;;;;;;;5070596;28;20213;-86
2023/04/08 09:59:12;;;;;;;6.50;5.43;;;;;;;;;;5071850;28;20209;-90
2023/04/08 10:01:45;;;;;;;4.93;4.43;;;;;;;;;;5073153;28;20197;-88
2023/04/08 10:04:16;;;;;;;6.57;5.47;;;;;;;;;;5070324;28;20241;-88
2023/04/08 10:06:44;;;;;;;5.77;4.50;;;;;;;;;;5072146;28;20197;-89
2023/04/08 10:09:13;;;;;;;10.73;8.33;;;;;;;;;;5073445;28;20209;-89
2023/04/08 10:11:42;;;;;;;3.30;3.00;;;;;;;;;;5070941;28;20271;-90
2023/04/08 10:14:11;;;;;;;9.43;5.73;;;;;;;;;;5070734;28;20233;-89
2023/04/08 10:16:39;;;;;;;8.57;6.97;;;;;;;;;;5070752;28;20206;-91
2023/04/08 10:19:23;;;;;;;7.57;6.87;;;;;;;;;;5067595;28;20220;-89
2023/04/08 10:21:53;;;;;;;8.13;6.40;;;;;;;;;;5069941;28;20206;-87
2023/04/08 10:24:24;;;;;;;5.20;4.20;;;;;;;;;;5069830;28;20249;-88
2023/04/08 10:26:53;;;;;;;9.57;7.40;;;;;;;;;;5068845;28;20224;-88
2023/04/08 10:29:42;;;;;;;5.80;5.10;;;;;;;;;;5071267;28;20205;-87
2023/04/08 10:32:28;;;;;;;9.97;7.97;;;;;;;;;;5071275;28;20233;-88
2023/04/08 10:34:57;;;;;;;11.43;8.70;;;;;;;;;;5070433;28;20267;-88
2023/04/08 10:37:28;;;;;;;8.43;6.53;;;;;;;;;;5069022;28;20301;-87
2023/04/08 10:39:56;;;;;;;2.87;2.67;;;;;;;;;;5071288;28;20217;-87
2023/04/08 10:42:28;;;;;;;2.83;2.63;;;;;;;;;;5071740;28;20311;-88
2023/04/08 10:45:00;;;;;;;6.30;5.27;;;;;;;;;;5068356;28;20210;-87
2023/04/08 10:47:29;;;;;;;4.50;3.17;;;;;;;;;;5071666;28;20198;-85
2023/04/08 10:49:57;;;;;;;6.23;5.07;;;;;;;;;;5071097;28;20232;-84
2023/04/08 10:52:27;;;;;;;9.73;7.47;;;;;;;;;;5071415;28;20221;-84
2023/04/08 10:54:56;;;;;;;3.87;3.47;;;;;;;;;;5070263;28;20244;-85
2023/04/08 10:57:24;;;;;;;8.13;7.33;;;;;;;;;;5071153;28;20279;-85
2023/04/08 10:59:53;;;;;;;8.93;7.33;;;;;;;;;;5070874;28;20197;-84
2023/04/08 11:02:21;;;;;;;7.23;6.53;;;;;;;;;;5071346;28;20278;-84
2023/04/08 11:04:50;;;;;;;7.97;4.07;;;;;;;;;;5070352;28;20267;-84
2023/04/08 11:07:21;;;;;;;6.23;3.97;;;;;;;;;;5070278;28;20202;-84
2023/04/08 11:09:53;;;;;;;13.00;6.57;;;;;;;;;;5070536;28;20210;-84
2023/04/08 11:12:22;;;;;;;6.40;5.30;;;;;;;;;;5069171;28;20258;-85
2023/04/08 11:14:52;;;;;;;1.20;1.10;;;;;;;;;;5070981;28;20196;-87
2023/04/08 11:17:21;;;;;;;7.20;3.87;;;;;;;;;;5070893;28;20210;-87
2023/04/08 11:19:50;;;;;;;8.70;6.67;;;;;;;;;;5070379;28;20236;-87
2023/04/08 11:22:18;;;;;;;5.53;5.03;;;;;;;;;;5068131;28;20265;-88
2023/04/08 11:24:47;;;;;;;6.23;4.70;;;;;;;;;;5071057;28;20210;-87
2023/04/08 11:27:17;;;;;;;1.03;1.03;;;;;;;;;;5068567;28;20225;-88
2023/04/08 11:29:49;;;;;;;3.27;3.03;;;;;;;;;;5071809;28;20233;-87
2023/04/08 11:32:18;;;;;;;2.30;2.20;;;;;;;;;;5052029;28;20210;-91
2023/04/08 11:34:47;;;;;;;4.20;3.77;;;;;;;;;;5051874;28;20234;-88
2023/04/08 11:37:17;;;;;;;3.00;2.47;;;;;;;;;;5037276;28;20262;-87
2023/04/08 11:39:46;;;;;;;6.10;5.50;;;;;;;;;;5044423;28;20233;-89
2023/04/08 11:42:28;;;;;;;3.73;2.50;;;;;;;;;;5046912;28;20280;-88
2023/04/08 11:44:57;;;;;;;5.77;3.83;;;;;;;;;;5042427;28;20241;-87
2023/04/08 11:47:32;;;;;;;5.17;4.43;;;;;;;;;;5050024;28;20232;-88
2023/04/08 11:50:01;;;;;;;14.20;6.00;;;;;;;;;;5052429;28;20257;-88
2023/04/08 11:52:42;;;;;;;4.07;3.43;;;;;;;;;;5053210;28;20235;-87
2023/04/08 11:55:22;;;;;;;6.03;5.53;;;;;;;;;;5052233;28;20205;-88
2023/04/08 11:57:52;;;;;;;6.47;3.83;;;;;;;;;;5051711;28;20261;-87
2023/04/08 12:00:21;;;;;;;8.17;6.57;;;;;;;;;;5052021;28;20203;-88
2023/04/08 12:02:50;;;;;;;8.70;7.03;;;;;;;;;;5052110;28;20196;-87
2023/04/08 12:05:19;;;;;;;4.20;3.63;;;;;;;;;;5051539;28;20314;-87
2023/04/08 12:07:48;;;;;;;7.33;3.80;;;;;;;;;;5051515;28;20217;-87
2023/04/08 12:10:19;;;;;;;5.60;5.07;;;;;;;;;;5052051;28;20208;-87
2023/04/08 12:12:47;;;;;;;3.50;3.20;;;;;;;;;;5051310;28;20199;-87
2023/04/08 12:15:17;;;;;;;7.40;5.57;;;;;;;;;;5051000;28;20188;-88
2023/04/08 12:17:46;;;;;;;9.43;5.83;;;;;;;;;;5051214;28;20200;-88
2023/04/08 12:20:16;;;;;;;6.03;5.10;;;;;;;;;;5051008;28;20196;-87
2023/04/08 12:22:44;;;;;;;4.73;4.00;;;;;;;;;;5051552;28;20191;-88
2023/04/08 12:25:13;;;;;;;6.73;5.50;;;;;;;;;;5051163;28;20260;-88
2023/04/08 12:27:42;;;;;;;5.93;4.83;;;;;;;;;;5051453;28;20222;-88
2023/04/08 12:30:11;;;;;;;4.83;4.33;;;;;;;;;;5054105;28;20343;-87
2023/04/08 12:32:41;;;;;;;4.80;2.90;;;;;;;;;;5071335;28;20207;-88
2023/04/08 12:35:10;;;;;;;5.57;4.70;;;;;;;;;;5071348;28;20194;-88
2023/04/08 12:37:38;;;;;;;7.37;6.20;;;;;;;;;;5071856;28;20279;-88
2023/04/08 12:40:08;;;;;;;7.57;6.23;;;;;;;;;;5071412;28;20222;-87
2023/04/08 12:42:36;;;;;;;5.70;4.97;;;;;;;;;;5071280;28;20210;-88
2023/04/08 12:45:05;;;;;;;7.67;5.40;;;;;;;;;;5071901;28;20214;-89
2023/04/08 12:47:33;;;;;;;9.13;5.90;;;;;;;;;;5071763;28;20202;-89
2023/04/08 12:50:03;;;;;;;5.90;5.33;;;;;;;;;;5071272;28;20198;-88
2023/04/08 12:52:32;;;;;;;8.80;6.63;;;;;;;;;;5073384;28;20198;-88
2023/04/08 12:55:00;;;;;;;7.60;5.57;;;;;;;;;;5075871;28;20193;-87
2023/04/08 12:57:30;;;;;;;7.40;5.20;;;;;;;;;;5075502;28;20225;-88
2023/04/08 12:59:59;;;;;;;7.83;7.03;;;;;;;;;;5075512;28;20224;-88
2023/04/08 13:02:27;;;;;;;5.33;4.40;;;;;;;;;;5075634;28;20206;-88
2023/04/08 13:04:56;;;;;;;8.27;6.93;;;;;;;;;;5075315;28;20215;-88
2023/04/08 13:07:26;;;;;;;7.07;3.97;;;;;;;;;;5075386;28;20239;-86
2023/04/08 13:09:54;;;;;;;4.97;3.53;;;;;;;;;;5075393;28;20289;-86
2023/04/08 13:12:23;;;;;;;4.53;2.97;;;;;;;;;;5074775;28;20203;-86
2023/04/08 13:14:51;;;;;;;5.23;4.70;;;;;;;;;;5074985;28;20191;-86
2023/04/08 13:17:20;;;;;;;4.73;4.23;;;;;;;;;;5074984;28;20298;-86
2023/04/08 13:19:49;;;;;;;3.73;3.17;;;;;;;;;;5074955;28;20232;-86
2023/04/08 13:22:18;;;;;;;6.07;3.63;;;;;;;;;;5074274;28;20244;-86
2023/04/08 13:24:47;;;;;;;6.93;6.23;;;;;;;;;;5074706;28;20208;-86
2023/04/08 13:27:16;;;;;;;7.47;5.30;;;;;;;;;;5074379;28;20241;-85
2023/04/08 13:29:44;;;;;;;7.57;6.87;;;;;;;;;;5074180;28;20198;-86
2023/04/08 13:32:13;;;;;;;11.33;7.97;;;;;;;;;;5074022;28;20226;-86
2023/04/08 13:34:42;;;;;;;6.10;5.13;;;;;;;;;;5074751;28;20195;-88
2023/04/08 13:37:12;;;;;;;12.27;10.97;;;;;;;;;;5074080;28;20293;-88
2023/04/08 13:39:40;;;;;;;5.97;5.37;;;;;;;;;;5074554;28;20214;-88
2023/04/08 13:42:10;;;;;;;12.50;8.93;;;;;;;;;;5074751;28;20287;-88
2023/04/08 13:44:39;;;;;;;9.73;8.43;;;;;;;;;;5073910;28;20208;-86
2023/04/08 13:47:07;;;;;;;5.37;4.80;;;;;;;;;;5074237;28;20239;-86
2023/04/08 13:49:35;;;;;;;8.27;5.77;;;;;;;;;;5074294;28;20256;-88
2023/04/08 13:52:04;;;;;;;7.77;6.27;;;;;;;;;;5074190;28;20217;-88
2023/04/08 13:54:32;;;;;;;8.87;7.70;;;;;;;;;;5074218;28;20195;-88
2023/04/08 13:57:01;;;;;;;10.27;8.80;;;;;;;;;;5074400;28;20196;-88
2023/04/08 13:59:30;;;;;;;7.47;4.30;;;;;;;;;;5074068;28;20207;-88
2023/04/08 14:01:59;;;;;;;5.33;3.97;;;;;;;;;;5074178;28;20208;-88
2023/04/08 14:04:28;;;;;;;4.67;4.17;;;;;;;;;;5073526;28;20296;-89
2023/04/08 14:06:57;;;;;;;7.07;6.07;;;;;;;;;;5073811;28;20227;-88
2023/04/08 14:09:25;;;;;;;5.90;5.40;;;;;;;;;;5073923;28;20196;-88
2023/04/08 14:11:53;;;;;;;7.90;7.03;;;;;;;;;;5073932;28;20203;-88
2023/04/08 14:14:22;;;;;;;4.70;4.17;;;;;;;;;;5073619;28;20206;-88
2023/04/08 14:16:52;;;;;;;6.73;5.50;;;;;;;;;;5073715;28;20199;-88
2023/04/08 14:19:20;;;;;;;4.20;3.43;;;;;;;;;;5073703;28;20235;-88
2023/04/08 14:21:49;;;;;;;10.63;7.60;;;;;;;;;;5073880;28;20243;-88
2023/04/08 14:24:17;;;;;;;5.10;3.07;;;;;;;;;;5073652;28;20196;-88
2023/04/08 14:26:46;;;;;;;6.57;5.37;;;;;;;;;;5073665;28;20269;-88
2023/04/08 14:29:14;;;;;;;4.77;3.93;;;;;;;;;;5073624;28;20204;-88
2023/04/08 14:31:42;;;;;;;6.90;5.40;;;;;;;;;;5072801;28;20272;-88
2023/04/08 14:34:12;;;;;;;6.07;5.23;;;;;;;;;;5073410;28;20214;-88
2023/04/08 14:36:41;;;;;;;6.87;6.17;;;;;;;;;;5073612;28;20226;-88
2023/04/08 14:39:11;;;;;;;5.90;5.37;;;;;;;;;;5073173;28;20294;-88
2023/04/08 14:41:39;;;;;;;9.70;6.50;;;;;;;;;;5073490;28;20205;-88
2023/04/08 14:44:07;;;;;;;8.03;7.20;;;;;;;;;;5073359;28;20272;-88
2023/04/08 14:46:36;;;;;;;9.13;8.17;;;;;;;;;;5073008;28;20312;-88
2023/04/08 14:49:05;;;;;;;5.97;5.47;;;;;;;;;;5073768;28;20199;-88
2023/04/08 14:51:36;;;;;;;12.20;4.23;;;;;;;;;;5073479;28;20213;-88
2023/04/08 14:54:05;;;;;;;8.23;6.10;;;;;;;;;;5072830;28;20298;-88
2023/04/08 14:56:35;;;;;;;9.70;6.43;;;;;;;;;;5073269;28;20252;-88